createdAt,value
2023-05-09T00:00:00.236Z,12.17
2023-05-09T00:16:02.627Z,12
2023-05-09T00:31:04.932Z,11.94
2023-05-09T00:46:02.278Z,12
2023-05-09T01:00:04.417Z,11.94
2023-05-09T01:16:01.899Z,11.94
2023-05-09T01:31:04.268Z,11.83
2023-05-09T01:46:12.191Z,11.78
2023-05-09T02:00:03.445Z,11.72
2023-05-09T02:16:00.853Z,11.61
2023-05-09T02:31:03.083Z,11.5
2023-05-09T02:46:00.277Z,11.39
2023-05-09T03:00:01.997Z,11.39
2023-05-09T03:16:04.406Z,11.33
2023-05-09T03:31:01.597Z,11.28
2023-05-09T03:46:03.570Z,11.22
2023-05-09T04:00:00.671Z,11.06
2023-05-09T04:16:03.018Z,10.94
2023-05-09T04:31:00.262Z,10.83
2023-05-09T04:46:02.392Z,10.78
2023-05-09T05:00:04.354Z,10.78
2023-05-09T05:16:01.938Z,10.89
2023-05-09T05:31:03.953Z,11.06
2023-05-09T05:46:01.366Z,11.22
2023-05-09T06:00:03.396Z,11.39
2023-05-09T06:16:15.200Z,11.61
2023-05-09T06:31:00.221Z,11.78
2023-05-09T06:46:00.223Z,12.11
2023-05-09T07:00:02.066Z,12.33
2023-05-09T07:16:04.592Z,12.5
2023-05-09T07:31:01.700Z,12.72
2023-05-09T07:46:06.379Z,13
2023-05-09T08:00:00.918Z,13.22
2023-05-09T08:16:03.349Z,13.28
2023-05-09T08:31:00.463Z,13.56
2023-05-09T08:46:02.661Z,13.72
2023-05-09T09:00:04.519Z,13.67
2023-05-09T09:16:01.862Z,13.67
2023-05-09T09:31:04.101Z,14.28
2023-05-09T09:46:01.274Z,14.72
2023-05-09T10:00:03.329Z,14.94
2023-05-09T10:16:00.829Z,15.5
2023-05-09T10:31:02.823Z,15.67
2023-05-09T10:45:59.904Z,15.78
2023-05-09T11:00:01.691Z,16
2023-05-09T11:16:04.033Z,16.56
2023-05-09T11:31:01.290Z,17.39
2023-05-09T11:46:03.699Z,17.33
2023-05-09T12:00:00.583Z,17.17
2023-05-09T12:16:03.026Z,17.22
2023-05-09T12:31:00.198Z,17.06
2023-05-09T12:46:02.550Z,16.67
2023-05-09T13:00:04.558Z,16.94
2023-05-09T13:16:01.748Z,17.22
2023-05-09T13:31:03.848Z,17.78
2023-05-09T13:46:00.935Z,17.72
2023-05-09T14:00:02.720Z,18
2023-05-09T14:16:00.141Z,18.44
2023-05-09T14:31:02.341Z,17.67
2023-05-09T14:46:04.179Z,17.44
2023-05-09T15:00:12.516Z,17.22
2023-05-09T15:16:03.520Z,17.06
2023-05-09T15:31:00.561Z,17
2023-05-09T15:46:02.810Z,17.17
2023-05-09T15:59:59.756Z,17.39
2023-05-09T16:16:02.063Z,17.17
2023-05-09T16:31:04.280Z,17.17
2023-05-09T16:46:01.548Z,16.72
2023-05-09T17:00:03.342Z,16.22
2023-05-09T17:16:00.704Z,15.94
2023-05-09T17:31:02.607Z,15.83
2023-05-09T17:46:00.085Z,15.56
2023-05-09T18:00:01.872Z,15.22
2023-05-09T18:16:04.326Z,14.56
2023-05-09T18:31:01.464Z,14.06
2023-05-09T18:46:03.740Z,13.56
2023-05-09T19:00:00.774Z,13.22
2023-05-09T19:16:03.051Z,13
2023-05-09T19:31:00.266Z,12.94
2023-05-09T19:46:02.058Z,12.94
2023-05-09T20:00:03.747Z,12.78
2023-05-09T20:16:01.054Z,12.5
2023-05-09T20:31:03.104Z,12.33
2023-05-09T20:46:00.291Z,12.17
2023-05-09T21:00:02.163Z,12.06
2023-05-09T21:16:04.573Z,11.89
2023-05-09T21:31:01.863Z,11.72
2023-05-09T21:46:01.362Z,11.5
2023-05-09T22:00:01.169Z,11.44
2023-05-09T22:16:03.380Z,11.28
2023-05-09T22:31:00.448Z,11
2023-05-09T22:46:02.480Z,10.94
2023-05-09T23:00:04.546Z,10.89
2023-05-09T23:16:01.969Z,10.94
2023-05-09T23:31:04.142Z,10.89
2023-05-09T23:46:01.120Z,10.72
